createdAt,value
2022-11-08T00:02:10.698Z,8.40
2022-11-08T00:04:41.903Z,8.66
2022-11-08T00:07:34.371Z,8.85
2022-11-08T00:10:31.202Z,9.02
2022-11-08T00:13:29.708Z,9.11
2022-11-08T00:16:06.130Z,9.08
2022-11-08T00:18:44.854Z,9.16
2022-11-08T00:21:33.788Z,9.15
2022-11-08T00:24:19.825Z,9.30
2022-11-08T00:27:10.364Z,9.16
2022-11-08T00:29:39.083Z,9.12
2022-11-08T00:32:14.122Z,8.96
2022-11-08T00:34:56.261Z,9.09
2022-11-08T00:37:47.307Z,9.04
2022-11-08T00:40:35.037Z,9.05
2022-11-08T00:43:08.436Z,8.83
2022-11-08T00:45:40.027Z,8.59
2022-11-08T00:48:16.192Z,8.53
2022-11-08T00:50:48.812Z,8.71
2022-11-08T00:53:33.123Z,8.74
2022-11-08T00:56:22.370Z,8.80
2022-11-08T00:58:53.097Z,8.76
2022-11-08T01:01:35.977Z,8.60
2022-11-08T01:04:12.136Z,8.39
2022-11-08T01:06:42.079Z,8.35
2022-11-08T01:09:11.644Z,8.63
2022-11-08T01:11:51.499Z,8.59
2022-11-08T01:14:32.384Z,8.50
2022-11-08T01:17:07.565Z,8.64
2022-11-08T01:19:45.652Z,8.54
2022-11-08T01:22:18.832Z,8.56
2022-11-08T01:24:47.583Z,8.48
2022-11-08T01:27:16.750Z,8.92
2022-11-08T01:29:56.507Z,8.94
2022-11-08T01:32:54.887Z,8.74
2022-11-08T01:35:30.457Z,8.78
2022-11-08T01:38:04.926Z,8.66
2022-11-08T01:40:48.784Z,8.58
2022-11-08T01:43:30.325Z,8.56
2022-11-08T01:46:19.804Z,8.48
2022-11-08T01:49:19.805Z,8.29
2022-11-08T01:52:10.009Z,8.23
2022-11-08T01:54:55.220Z,8.52
2022-11-08T01:57:36.044Z,8.40
2022-11-08T02:00:12.403Z,8.24
2022-11-08T02:02:43.879Z,8.38
2022-11-08T02:05:26.429Z,8.40
2022-11-08T02:08:22.137Z,8.38
2022-11-08T02:10:53.314Z,8.26
2022-11-08T02:13:33.841Z,8.30
2022-11-08T02:16:01.757Z,8.45
2022-11-08T02:18:32.332Z,8.43
2022-11-08T02:21:26.756Z,8.71
2022-11-08T02:23:59.081Z,8.50
2022-11-08T02:26:35.202Z,8.29
2022-11-08T02:29:30.270Z,8.22
2022-11-08T02:31:59.773Z,8.01
2022-11-08T02:34:46.800Z,8.24
2022-11-08T02:37:18.945Z,8.27
2022-11-08T02:39:47.961Z,8.59
2022-11-08T02:42:20.837Z,8.53
2022-11-08T02:44:48.571Z,8.28
2022-11-08T02:47:16.984Z,7.78
2022-11-08T02:49:44.654Z,7.83
2022-11-08T02:52:12.085Z,7.76
2022-11-08T02:54:39.902Z,7.50
2022-11-08T02:57:07.380Z,7.63
2022-11-08T02:59:36.730Z,7.56
2022-11-08T03:02:04.115Z,7.49
2022-11-08T03:04:31.575Z,7.59
2022-11-08T03:06:58.802Z,7.67
2022-11-08T03:09:27.331Z,7.60
2022-11-08T03:11:54.963Z,7.45
2022-11-08T03:14:47.098Z,7.38
2022-11-08T03:17:14.379Z,7.35
2022-11-08T03:19:41.627Z,7.52
2022-11-08T03:22:08.825Z,7.48
2022-11-08T03:24:36.344Z,7.29
2022-11-08T03:27:03.736Z,6.90
2022-11-08T03:29:30.970Z,7.16
2022-11-08T03:31:58.668Z,7.09
2022-11-08T03:34:26.375Z,7.23
2022-11-08T03:36:53.686Z,7.26
2022-11-08T03:39:21.268Z,7.23
2022-11-08T03:41:49.245Z,6.93
2022-11-08T03:44:16.601Z,7.10
2022-11-08T03:46:44.064Z,7.10
2022-11-08T03:49:11.526Z,7.09
2022-11-08T03:51:38.715Z,7.30
2022-11-08T03:54:05.925Z,7.28
2022-11-08T03:56:33.022Z,7.25
2022-11-08T03:59:00.226Z,7.27
2022-11-08T04:01:27.980Z,7.23
2022-11-08T04:03:55.613Z,7.33
2022-11-08T04:06:23.074Z,7.31
2022-11-08T04:08:50.555Z,7.10
2022-11-08T04:11:36.842Z,6.89
2022-11-08T04:14:23.067Z,6.84
2022-11-08T04:16:50.423Z,6.95
2022-11-08T04:19:36.509Z,7.12
2022-11-08T04:22:04.729Z,7.60
2022-11-08T04:24:32.111Z,7.60
2022-11-08T04:26:59.777Z,7.40
2022-11-08T04:29:27.127Z,7.14
2022-11-08T04:31:54.488Z,7.07
2022-11-08T04:34:22.184Z,7.23
2022-11-08T04:36:49.646Z,7.22
2022-11-08T04:39:17.642Z,6.97
2022-11-08T04:41:45.197Z,7.20
2022-11-08T04:44:12.580Z,7.26
2022-11-08T04:46:43.627Z,7.58
2022-11-08T04:49:11.490Z,7.26
2022-11-08T04:51:38.787Z,7.11
2022-11-08T04:54:07.646Z,6.87
2022-11-08T04:56:35.194Z,7.04
2022-11-08T04:59:02.398Z,7.56
2022-11-08T05:01:31.876Z,7.34
2022-11-08T05:03:59.459Z,6.93
2022-11-08T05:06:31.678Z,6.80
2022-11-08T05:09:00.518Z,6.86
2022-11-08T05:11:30.641Z,6.87
2022-11-08T05:13:58.454Z,6.87
2022-11-08T05:16:32.339Z,6.79
2022-11-08T05:19:00.207Z,6.80
2022-11-08T05:21:46.227Z,6.58
2022-11-08T05:24:17.212Z,6.21
2022-11-08T05:26:48.617Z,6.53
2022-11-08T05:29:17.397Z,6.84
2022-11-08T05:31:45.272Z,7.15
2022-11-08T05:34:12.559Z,6.83
2022-11-08T05:36:39.710Z,6.68
2022-11-08T05:39:10.189Z,6.97
2022-11-08T05:41:38.511Z,6.91
2022-11-08T05:44:06.164Z,7.10
2022-11-08T05:46:37.006Z,7.14
2022-11-08T05:49:05.054Z,6.84
2022-11-08T05:51:32.804Z,7.05
2022-11-08T05:54:00.304Z,6.75
2022-11-08T05:56:28.263Z,6.74
2022-11-08T05:58:56.316Z,6.67
2022-11-08T06:01:23.561Z,6.35
2022-11-08T06:03:50.880Z,6.55
2022-11-08T06:06:21.654Z,6.91
2022-11-08T06:08:50.917Z,6.99
2022-11-08T06:11:24.649Z,7.06
2022-11-08T06:13:54.719Z,7.13
2022-11-08T06:16:24.225Z,7.18
2022-11-08T06:18:51.751Z,6.77
2022-11-08T06:21:21.305Z,7.24
2022-11-08T06:23:53.500Z,7.18
2022-11-08T06:26:23.849Z,7.33
2022-11-08T06:28:52.450Z,7.21
2022-11-08T06:31:19.977Z,7.47
2022-11-08T06:33:47.725Z,7.40
2022-11-08T06:36:15.079Z,7.17
2022-11-08T06:38:42.443Z,7.06
2022-11-08T06:41:20.313Z,6.94
2022-11-08T06:43:49.078Z,6.94
2022-11-08T06:46:16.765Z,7.00
2022-11-08T06:48:44.755Z,7.20
2022-11-08T06:51:12.971Z,7.23
2022-11-08T06:53:40.542Z,7.23
2022-11-08T06:56:08.479Z,7.24
2022-11-08T06:58:36.268Z,7.35
2022-11-08T07:01:06.629Z,7.53
2022-11-08T07:03:34.922Z,7.40
2022-11-08T07:06:07.137Z,7.46
2022-11-08T07:08:35.572Z,7.86
2022-11-08T07:11:28.291Z,7.80
2022-11-08T07:13:55.514Z,7.82
2022-11-08T07:16:22.724Z,7.87
2022-11-08T07:18:51.421Z,8.23
2022-11-08T07:21:18.836Z,8.88
2022-11-08T07:23:46.145Z,8.62
2022-11-08T07:26:13.938Z,8.80
2022-11-08T07:28:42.262Z,8.90
2022-11-08T07:31:12.496Z,9.13
2022-11-08T07:33:43.090Z,9.14
2022-11-08T07:36:11.674Z,9.28
2022-11-08T07:38:39.612Z,9.52
2022-11-08T07:41:09.984Z,9.37
2022-11-08T07:43:37.602Z,9.62
2022-11-08T07:46:11.400Z,9.45
2022-11-08T07:48:38.812Z,9.75
2022-11-08T07:51:08.466Z,9.84
2022-11-08T07:53:35.897Z,9.81
2022-11-08T07:56:03.442Z,9.64
2022-11-08T07:58:30.829Z,9.50
2022-11-08T08:01:03.411Z,9.46
2022-11-08T08:03:31.753Z,9.47
2022-11-08T08:06:01.519Z,9.61
2022-11-08T08:08:30.050Z,9.80
2022-11-08T08:11:00.725Z,9.66
2022-11-08T08:13:31.984Z,9.65
2022-11-08T08:16:01.538Z,10.25
2022-11-08T08:18:30.789Z,10.23
2022-11-08T08:20:59.010Z,10.23
2022-11-08T08:23:26.394Z,10.31
2022-11-08T08:25:54.414Z,10.49
2022-11-08T08:28:22.123Z,11.14
2022-11-08T08:30:49.659Z,11.47
2022-11-08T08:33:34.701Z,11.80
2022-11-08T08:36:02.713Z,12.19
2022-11-08T08:38:36.795Z,15.47
2022-11-08T08:41:07.474Z,19.23
2022-11-08T08:43:34.709Z,21.47
2022-11-08T08:46:05.836Z,23.13
2022-11-08T08:48:33.594Z,25.25
2022-11-08T08:51:02.125Z,26.27
2022-11-08T08:53:30.090Z,27.06
2022-11-08T08:55:58.441Z,27.39
2022-11-08T08:58:26.117Z,28.08
2022-11-08T09:03:40.737Z,26.49
2022-11-08T09:06:08.293Z,25.23
2022-11-08T09:08:37.037Z,23.86
2022-11-08T09:11:04.756Z,22.96
2022-11-08T09:13:32.668Z,23.51
2022-11-08T09:16:02.827Z,23.54
2022-11-08T09:18:31.621Z,23.96
2022-11-08T09:21:00.541Z,24.47
2022-11-08T09:23:27.966Z,24.52
2022-11-08T09:26:02.565Z,25.61
2022-11-08T09:28:34.176Z,28.42
2022-11-08T09:31:06.419Z,30.31
2022-11-08T09:33:41.154Z,31.09
2022-11-08T09:36:13.926Z,31.79
2022-11-08T09:38:42.067Z,32.78
2022-11-08T09:41:59.386Z,33.72
2022-11-08T09:45:12.261Z,33.44
2022-11-08T09:47:52.038Z,32.86
2022-11-08T09:50:45.103Z,31.45
2022-11-08T09:53:57.623Z,30.62
2022-11-08T09:56:40.034Z,29.88
2022-11-08T09:59:43.464Z,30.61
2022-11-08T10:02:23.682Z,30.00
2022-11-08T10:05:06.008Z,29.55
2022-11-08T10:08:04.333Z,29.58
2022-11-08T10:11:05.926Z,29.91
2022-11-08T10:13:58.297Z,28.66
2022-11-08T10:17:02.017Z,28.04
2022-11-08T10:20:10.573Z,27.72
2022-11-08T10:23:18.292Z,26.31
2022-11-08T10:26:18.033Z,25.41
2022-11-08T10:29:08.898Z,24.47
2022-11-08T10:31:41.285Z,23.86
2022-11-08T10:34:27.228Z,23.47
2022-11-08T10:37:04.295Z,23.32
2022-11-08T10:39:55.683Z,23.14
2022-11-08T10:42:45.604Z,23.22
2022-11-08T10:45:13.341Z,23.21
2022-11-08T10:47:45.140Z,22.90
2022-11-08T10:50:26.223Z,22.48
2022-11-08T10:53:08.454Z,22.31
2022-11-08T10:55:49.007Z,21.98
2022-11-08T10:58:41.440Z,21.69
2022-11-08T11:01:25.608Z,22.35
2022-11-08T11:03:54.108Z,23.07
2022-11-08T11:06:33.438Z,24.09
2022-11-08T11:09:21.688Z,25.02
2022-11-08T11:12:15.366Z,25.38
2022-11-08T11:14:58.478Z,25.63
2022-11-08T11:17:37.181Z,25.44
2022-11-08T11:20:23.996Z,24.96
2022-11-08T11:22:53.634Z,24.11
2022-11-08T11:25:24.296Z,23.34
2022-11-08T11:27:59.664Z,23.34
2022-11-08T11:30:34.713Z,23.45
2022-11-08T11:33:25.861Z,23.51
2022-11-08T11:36:12.190Z,23.45
2022-11-08T11:38:56.273Z,23.40
2022-11-08T11:41:56.067Z,22.46
2022-11-08T11:44:35.951Z,22.63
2022-11-08T11:47:16.469Z,22.94
2022-11-08T11:49:45.759Z,23.60
2022-11-08T11:52:19.705Z,25.33
2022-11-08T11:54:49.819Z,26.00
2022-11-08T11:58:13.195Z,26.52
2022-11-08T12:01:18.705Z,28.01
2022-11-08T12:04:06.830Z,28.62
2022-11-08T12:06:42.841Z,28.33
2022-11-08T12:09:42.435Z,27.55
2022-11-08T12:12:31.587Z,25.42
2022-11-08T12:15:34.982Z,26.04
2022-11-08T12:18:52.625Z,27.60
2022-11-08T12:22:01.392Z,28.28
2022-11-08T12:25:13.564Z,29.56
2022-11-08T12:28:06.740Z,29.02
2022-11-08T12:30:58.740Z,29.11
2022-11-08T12:33:56.731Z,29.99
2022-11-08T12:36:52.274Z,29.71
2022-11-08T12:39:35.980Z,29.62
2022-11-08T12:42:44.692Z,28.35
2022-11-08T12:45:55.252Z,26.73
2022-11-08T12:49:24.665Z,25.83
2022-11-08T12:52:19.515Z,25.78
2022-11-08T12:55:03.448Z,24.74
2022-11-08T12:57:32.196Z,23.72
2022-11-08T13:00:13.109Z,22.86
2022-11-08T13:02:44.761Z,22.03
2022-11-08T13:05:58.649Z,21.83
2022-11-08T13:08:59.128Z,21.89
2022-11-08T13:11:45.685Z,22.22
2022-11-08T13:14:19.875Z,22.50
2022-11-08T13:17:24.901Z,22.37
2022-11-08T13:20:06.160Z,22.32
2022-11-08T13:22:45.838Z,22.26
2022-11-08T13:25:23.565Z,22.65
2022-11-08T13:27:51.154Z,22.96
2022-11-08T13:30:18.519Z,23.05
2022-11-08T13:33:15.148Z,22.87
2022-11-08T13:35:51.017Z,22.99
2022-11-08T13:39:03.952Z,22.04
2022-11-08T13:41:31.789Z,22.00
2022-11-08T13:44:00.988Z,21.90
2022-11-08T13:46:29.389Z,21.51
2022-11-08T13:49:05.691Z,21.53
2022-11-08T13:51:47.102Z,21.92
2022-11-08T13:54:31.631Z,22.19
2022-11-08T13:58:03.040Z,22.43
2022-11-08T14:00:47.367Z,22.50
2022-11-08T14:03:48.478Z,22.50
2022-11-08T14:07:07.337Z,22.32
2022-11-08T14:10:28.688Z,21.69
2022-11-08T14:13:53.216Z,21.40
2022-11-08T14:16:48.500Z,21.48
2022-11-08T14:19:31.968Z,21.41
2022-11-08T14:22:05.333Z,21.30
2022-11-08T14:24:40.185Z,21.41
2022-11-08T14:27:12.239Z,21.39
2022-11-08T14:29:41.760Z,21.38
2022-11-08T14:32:24.652Z,21.45
2022-11-08T14:34:51.962Z,21.29
2022-11-08T14:37:27.667Z,21.37
2022-11-08T14:39:55.003Z,21.03
2022-11-08T14:42:26.324Z,20.99
2022-11-08T14:48:03.379Z,21.14
2022-11-08T14:50:35.421Z,21.05
2022-11-08T14:53:47.175Z,20.72
2022-11-08T14:56:27.783Z,20.74
2022-11-08T14:58:56.266Z,20.64
2022-11-08T15:01:26.958Z,20.76
2022-11-08T15:04:13.598Z,20.58
2022-11-08T15:06:47.020Z,20.55
2022-11-08T15:09:35.937Z,20.30
2022-11-08T15:12:14.218Z,19.93
2022-11-08T15:15:00.813Z,19.93
2022-11-08T15:17:39.615Z,19.61
2022-11-08T15:20:21.803Z,19.51
2022-11-08T15:22:52.945Z,19.39
2022-11-08T15:25:38.543Z,19.23
2022-11-08T15:28:26.087Z,19.32
2022-11-08T15:31:03.103Z,19.00
2022-11-08T15:33:40.804Z,18.80
2022-11-08T15:36:16.562Z,18.48
2022-11-08T15:38:50.551Z,18.41
2022-11-08T15:41:39.614Z,17.69
2022-11-08T15:44:24.726Z,17.46
2022-11-08T15:46:56.100Z,17.16
2022-11-08T15:49:28.711Z,16.98
2022-11-08T15:52:01.110Z,16.98
2022-11-08T15:54:28.738Z,16.57
2022-11-08T15:56:57.523Z,16.39
2022-11-08T15:59:30.190Z,16.32
2022-11-08T16:02:02.993Z,16.11
2022-11-08T16:04:30.865Z,16.12
2022-11-08T16:06:58.475Z,16.29
2022-11-08T16:09:26.591Z,16.42
2022-11-08T16:11:54.561Z,16.50
2022-11-08T16:14:25.125Z,16.22
2022-11-08T16:16:52.856Z,16.18
2022-11-08T16:19:25.005Z,16.27
2022-11-08T16:21:52.955Z,16.02
2022-11-08T16:24:20.294Z,15.75
2022-11-08T16:26:49.431Z,15.54
2022-11-08T16:29:24.187Z,15.41
2022-11-08T16:31:52.240Z,15.55
2022-11-08T16:34:20.495Z,15.46
2022-11-08T16:36:52.145Z,15.56
2022-11-08T16:39:26.165Z,15.53
2022-11-08T16:41:53.442Z,15.43
2022-11-08T16:44:20.738Z,15.26
2022-11-08T16:47:18.599Z,15.38
2022-11-08T16:49:51.437Z,15.53
2022-11-08T16:52:19.587Z,15.26
2022-11-08T16:54:47.892Z,15.96
2022-11-08T16:57:45.353Z,15.77
2022-11-08T17:00:04.952Z,15.98
2022-11-08T17:02:36.019Z,15.78
2022-11-08T17:05:04.197Z,15.73
2022-11-08T17:07:31.988Z,15.50
2022-11-08T17:10:00.050Z,15.28
2022-11-08T17:12:27.825Z,15.27
2022-11-08T17:14:56.199Z,15.31
2022-11-08T17:17:25.901Z,15.33
2022-11-08T17:19:54.867Z,15.18
2022-11-08T17:22:22.136Z,15.08
2022-11-08T17:24:49.530Z,15.11
2022-11-08T17:27:19.984Z,14.88
2022-11-08T17:29:47.439Z,14.83
2022-11-08T17:32:14.711Z,14.81
2022-11-08T17:34:42.039Z,14.88
2022-11-08T17:37:09.392Z,14.87
2022-11-08T17:39:36.793Z,14.81
2022-11-08T17:42:05.267Z,14.78
2022-11-08T17:44:33.483Z,14.79
2022-11-08T17:47:01.323Z,14.81
2022-11-08T17:49:29.684Z,14.88
2022-11-08T17:51:57.701Z,14.85
2022-11-08T17:54:25.311Z,14.70
2022-11-08T17:56:52.956Z,14.80
2022-11-08T17:59:21.289Z,14.43
2022-11-08T18:01:48.741Z,14.28
2022-11-08T18:04:16.586Z,14.40
2022-11-08T18:06:44.530Z,14.35
2022-11-08T18:09:12.871Z,14.17
2022-11-08T18:11:47.536Z,14.00
2022-11-08T18:14:28.056Z,14.05
2022-11-08T18:16:57.026Z,13.84
2022-11-08T18:19:24.762Z,14.12
2022-11-08T18:21:52.005Z,13.97
2022-11-08T18:24:19.500Z,14.07
2022-11-08T18:26:47.461Z,13.98
2022-11-08T18:29:15.933Z,13.87
2022-11-08T18:31:43.513Z,13.63
2022-11-08T18:34:10.882Z,13.72
2022-11-08T18:36:38.897Z,13.76
2022-11-08T18:39:06.427Z,13.65
2022-11-08T18:41:34.350Z,13.58
2022-11-08T18:44:02.992Z,13.16
2022-11-08T18:46:34.263Z,13.28
2022-11-08T18:49:06.260Z,13.25
2022-11-08T18:51:34.685Z,13.23
2022-11-08T18:54:02.407Z,13.43
2022-11-08T18:56:30.005Z,13.55
2022-11-08T18:58:57.400Z,13.57
2022-11-08T19:01:25.074Z,13.47
2022-11-08T19:03:52.458Z,13.40
2022-11-08T19:06:19.918Z,13.35
2022-11-08T19:08:48.071Z,13.24
2022-11-08T19:11:20.459Z,13.17
2022-11-08T19:13:50.630Z,12.98
2022-11-08T19:16:20.755Z,12.97
2022-11-08T19:18:51.845Z,12.98
2022-11-08T19:21:24.222Z,13.15
2022-11-08T19:23:58.618Z,13.24
2022-11-08T19:26:29.525Z,13.21
2022-11-08T19:28:58.507Z,13.73
2022-11-08T19:31:26.543Z,13.88
2022-11-08T19:33:55.791Z,14.07
2022-11-08T19:36:28.288Z,14.34
2022-11-08T19:38:58.533Z,14.65
2022-11-08T19:41:29.061Z,14.28
2022-11-08T19:43:59.335Z,14.22
2022-11-08T19:46:30.424Z,14.33
2022-11-08T19:49:24.295Z,14.42
2022-11-08T19:51:51.831Z,14.66
2022-11-08T19:54:19.302Z,14.53
2022-11-08T19:57:04.591Z,14.36
2022-11-08T19:59:36.187Z,14.48
2022-11-08T20:02:03.851Z,14.51
2022-11-08T20:04:31.499Z,13.95
2022-11-08T20:06:59.181Z,13.86
2022-11-08T20:09:30.582Z,13.98
2022-11-08T20:11:58.463Z,14.05
2022-11-08T20:14:26.298Z,14.07
2022-11-08T20:16:59.847Z,14.58
2022-11-08T20:19:27.392Z,14.74
2022-11-08T20:21:56.961Z,14.45
2022-11-08T20:24:24.532Z,14.30
2022-11-08T20:26:52.150Z,13.95
2022-11-08T20:29:19.507Z,13.99
2022-11-08T20:31:50.318Z,14.01
2022-11-08T20:34:18.901Z,14.05
2022-11-08T20:36:46.330Z,14.18
2022-11-08T20:39:15.386Z,14.34
2022-11-08T20:41:43.071Z,14.44
2022-11-08T20:44:11.858Z,14.48
2022-11-08T20:46:39.600Z,14.38
2022-11-08T20:49:08.417Z,14.34
2022-11-08T20:51:39.138Z,14.57
2022-11-08T20:54:09.293Z,14.45
2022-11-08T20:56:37.053Z,14.55
2022-11-08T20:59:04.672Z,14.73
2022-11-08T21:01:36.091Z,14.56
2022-11-08T21:04:03.852Z,14.34
2022-11-08T21:06:36.020Z,14.08
2022-11-08T21:11:54.449Z,14.10
2022-11-08T21:14:23.807Z,13.73
2022-11-08T21:17:20.047Z,13.65
2022-11-08T21:19:39.907Z,13.60
2022-11-08T21:22:16.418Z,13.56
2022-11-08T21:24:47.780Z,13.52
2022-11-08T21:27:18.800Z,13.50
2022-11-08T21:29:46.548Z,13.55
2022-11-08T21:32:14.458Z,13.25
2022-11-08T21:34:46.070Z,13.39
2022-11-08T21:37:18.050Z,13.59
2022-11-08T21:39:45.512Z,13.58
2022-11-08T21:42:13.870Z,13.50
2022-11-08T21:44:41.508Z,13.72
2022-11-08T21:47:09.960Z,13.42
2022-11-08T21:49:40.175Z,13.27
2022-11-08T21:52:07.853Z,12.95
2022-11-08T21:55:00.566Z,13.06
2022-11-08T21:57:28.636Z,13.14
2022-11-08T21:59:56.064Z,13.32
2022-11-08T22:02:23.614Z,13.41
2022-11-08T22:04:50.875Z,13.47
2022-11-08T22:07:18.668Z,13.35
2022-11-08T22:09:53.458Z,13.14
2022-11-08T22:12:21.343Z,12.87
2022-11-08T22:14:50.956Z,12.81
2022-11-08T22:17:21.494Z,12.73
2022-11-08T22:19:49.824Z,13.06
2022-11-08T22:22:17.646Z,13.12
2022-11-08T22:24:45.771Z,13.08
2022-11-08T22:27:14.135Z,12.99
2022-11-08T22:29:41.813Z,12.91
2022-11-08T22:32:09.372Z,13.04
2022-11-08T22:34:36.735Z,12.87
2022-11-08T22:37:04.104Z,12.41
2022-11-08T22:39:31.598Z,12.30
2022-11-08T22:42:05.819Z,12.58
2022-11-08T22:44:36.497Z,12.76
2022-11-08T22:47:04.773Z,13.01
2022-11-08T22:49:37.061Z,12.95
2022-11-08T22:52:06.890Z,13.09
2022-11-08T22:54:34.933Z,12.98
2022-11-08T22:57:09.141Z,13.01
2022-11-08T22:59:36.463Z,12.85
2022-11-08T23:02:03.889Z,12.95
2022-11-08T23:04:31.402Z,13.04
2022-11-08T23:07:02.070Z,12.92
2022-11-08T23:09:29.808Z,12.99
2022-11-08T23:12:20.537Z,12.71
2022-11-08T23:15:06.501Z,13.08
2022-11-08T23:17:34.064Z,13.80
2022-11-08T23:20:26.099Z,13.62
2022-11-08T23:23:12.487Z,13.40
2022-11-08T23:25:40.649Z,13.11
2022-11-08T23:28:27.116Z,13.13
2022-11-08T23:31:15.974Z,13.10
2022-11-08T23:33:46.182Z,13.19
2022-11-08T23:36:14.632Z,13.23
2022-11-08T23:38:47.093Z,13.02
2022-11-08T23:41:33.790Z,13.01
2022-11-08T23:44:19.694Z,13.02
2022-11-08T23:46:47.053Z,13.17
2022-11-08T23:49:14.363Z,13.13
2022-11-08T23:52:12.214Z,13.15
2022-11-08T23:55:08.602Z,13.27
2022-11-08T23:58:01.195Z,13.22
